sensor_id;sensor_type;location;lat;lon;timestamp;pressure;altitude;pressure_sealevel;temperature;humidity
7768;BME280;3928;42.626;23.382;2023-03-03T00:00:42;94197.53;;;7.62;83.15
7768;BME280;3928;42.626;23.382;2023-03-03T00:03:13;94188.09;;;7.69;82.91
7768;BME280;3928;42.626;23.382;2023-03-03T00:05:41;94185.56;;;7.68;83.05
7768;BME280;3928;42.626;23.382;2023-03-03T00:08:08;94185.63;;;7.63;83.65
7768;BME280;3928;42.626;23.382;2023-03-03T00:10:38;94167.72;;;7.65;82.63
7768;BME280;3928;42.626;23.382;2023-03-03T00:13:12;94193.16;;;7.78;82.40
7768;BME280;3928;42.626;23.382;2023-03-03T00:15:40;94175.28;;;7.77;82.65
7768;BME280;3928;42.626;23.382;2023-03-03T00:18:21;94175.31;;;7.74;82.73
7768;BME280;3928;42.626;23.382;2023-03-03T00:20:52;94190.59;;;7.81;82.27
7768;BME280;3928;42.626;23.382;2023-03-03T00:23:27;94188.13;;;7.71;82.92
7768;BME280;3928;42.626;23.382;2023-03-03T00:25:57;94170.19;;;7.77;82.45
7768;BME280;3928;42.626;23.382;2023-03-03T00:28:28;94182.06;;;7.81;82.55
7768;BME280;3928;42.626;23.382;2023-03-03T00:30:56;94178.75;;;7.67;82.63
7768;BME280;3928;42.626;23.382;2023-03-03T00:33:28;94176.28;;;7.60;82.99
7768;BME280;3928;42.626;23.382;2023-03-03T00:36:05;94164.31;;;7.66;82.62
7768;BME280;3928;42.626;23.382;2023-03-03T00:38:35;94169.41;;;7.66;81.77
7768;BME280;3928;42.626;23.382;2023-03-03T00:41:09;94169.34;;;7.76;82.31
7768;BME280;3928;42.626;23.382;2023-03-03T00:43:37;94163.28;;;7.88;82.21
7768;BME280;3928;42.626;23.382;2023-03-03T00:46:03;94156.41;;;7.96;81.26
7768;BME280;3928;42.626;23.382;2023-03-03T00:48:40;94158.22;;;7.83;82.10
7768;BME280;3928;42.626;23.382;2023-03-03T00:51:19;94159.75;;;8.01;81.59
7768;BME280;3928;42.626;23.382;2023-03-03T00:53:51;94107.97;;;7.84;81.38
7768;BME280;3928;42.626;23.382;2023-03-03T00:56:19;94129.13;;;7.98;80.84
7768;BME280;3928;42.626;23.382;2023-03-03T00:58:46;94130.00;;;7.96;80.82
7768;BME280;3928;42.626;23.382;2023-03-03T01:01:13;94091.78;;;7.85;80.98
7768;BME280;3928;42.626;23.382;2023-03-03T01:03:40;94135.00;;;8.08;80.57
7768;BME280;3928;42.626;23.382;2023-03-03T01:06:07;94128.09;;;8.17;80.09
7768;BME280;3928;42.626;23.382;2023-03-03T01:08:34;94120.34;;;8.24;80.28
7768;BME280;3928;42.626;23.382;2023-03-03T01:11:05;94128.75;;;8.33;78.78
7768;BME280;3928;42.626;23.382;2023-03-03T01:13:35;94128.72;;;8.38;79.01
7768;BME280;3928;42.626;23.382;2023-03-03T01:16:03;94106.66;;;8.28;79.01
7768;BME280;3928;42.626;23.382;2023-03-03T01:18:30;94126.94;;;8.46;78.71
7768;BME280;3928;42.626;23.382;2023-03-03T01:20:57;94118.41;;;8.45;78.63
7768;BME280;3928;42.626;23.382;2023-03-03T01:23:24;94128.53;;;8.56;78.63
7768;BME280;3928;42.626;23.382;2023-03-03T01:25:51;94127.66;;;8.57;78.33
7768;BME280;3928;42.626;23.382;2023-03-03T01:28:17;94114.94;;;8.51;78.12
7768;BME280;3928;42.626;23.382;2023-03-03T01:30:46;94119.19;;;8.52;78.50
7768;BME280;3928;42.626;23.382;2023-03-03T01:33:12;94111.50;;;8.55;77.81
7768;BME280;3928;42.626;23.382;2023-03-03T01:35:42;94106.28;;;8.61;78.20
7768;BME280;3928;42.626;23.382;2023-03-03T01:38:10;94109.75;;;8.57;78.55
7768;BME280;3928;42.626;23.382;2023-03-03T01:40:37;94107.25;;;8.51;78.47
7768;BME280;3928;42.626;23.382;2023-03-03T01:43:04;94107.25;;;8.54;77.86
7768;BME280;3928;42.626;23.382;2023-03-03T01:45:41;94109.91;;;8.45;77.48
7768;BME280;3928;42.626;23.382;2023-03-03T01:48:15;94107.19;;;8.57;77.23
7768;BME280;3928;42.626;23.382;2023-03-03T01:50:48;94106.38;;;8.55;77.25
7768;BME280;3928;42.626;23.382;2023-03-03T01:53:17;94108.06;;;8.56;78.00
7768;BME280;3928;42.626;23.382;2023-03-03T01:55:46;94097.91;;;8.50;78.26
7768;BME280;3928;42.626;23.382;2023-03-03T01:58:15;94115.75;;;8.56;78.33
7768;BME280;3928;42.626;23.382;2023-03-03T02:00:46;94099.53;;;8.57;77.34
7768;BME280;3928;42.626;23.382;2023-03-03T02:03:17;94100.34;;;8.59;77.95
7768;BME280;3928;42.626;23.382;2023-03-03T02:05:46;94107.13;;;8.65;78.32
7768;BME280;3928;42.626;23.382;2023-03-03T02:08:15;94115.56;;;8.70;77.37
7768;BME280;3928;42.626;23.382;2023-03-03T02:10:45;94104.44;;;8.72;77.68
7768;BME280;3928;42.626;23.382;2023-03-03T02:13:12;94098.53;;;8.67;76.81
7768;BME280;3928;42.626;23.382;2023-03-03T02:15:38;94106.97;;;8.77;77.08
7768;BME280;3928;42.626;23.382;2023-03-03T02:18:08;94087.50;;;8.62;76.72
7768;BME280;3928;42.626;23.382;2023-03-03T02:20:48;94114.69;;;8.71;77.05
7768;BME280;3928;42.626;23.382;2023-03-03T02:23:21;94113.06;;;8.64;77.41
7768;BME280;3928;42.626;23.382;2023-03-03T02:26:07;94114.81;;;8.60;77.59
7768;BME280;3928;42.626;23.382;2023-03-03T02:28:36;94107.13;;;8.62;77.31
7768;BME280;3928;42.626;23.382;2023-03-03T02:31:05;94118.34;;;8.50;77.40
7768;BME280;3928;42.626;23.382;2023-03-03T02:33:32;94114.06;;;8.52;78.13
7768;BME280;3928;42.626;23.382;2023-03-03T02:35:59;94115.00;;;8.46;78.20
7768;BME280;3928;42.626;23.382;2023-03-03T02:38:28;94104.94;;;8.30;79.01
7768;BME280;3928;42.626;23.382;2023-03-03T02:41:02;94082.81;;;8.26;78.24
7768;BME280;3928;42.626;23.382;2023-03-03T02:43:40;94104.78;;;8.45;78.88
7768;BME280;3928;42.626;23.382;2023-03-03T02:46:10;94104.75;;;8.48;78.67
7768;BME280;3928;42.626;23.382;2023-03-03T02:48:37;94104.63;;;8.57;77.65
7768;BME280;3928;42.626;23.382;2023-03-03T02:51:04;94108.81;;;8.64;77.63
7768;BME280;3928;42.626;23.382;2023-03-03T02:53:31;94111.28;;;8.70;77.37
7768;BME280;3928;42.626;23.382;2023-03-03T02:55:57;94094.22;;;8.72;77.36
7768;BME280;3928;42.626;23.382;2023-03-03T02:58:24;94105.97;;;8.86;76.45
7768;BME280;3928;42.626;23.382;2023-03-03T03:00:52;94103.50;;;8.79;75.82
7768;BME280;3928;42.626;23.382;2023-03-03T03:03:19;94102.69;;;8.77;76.49
7768;BME280;3928;42.626;23.382;2023-03-03T03:05:46;94096.72;;;8.77;77.22
7768;BME280;3928;42.626;23.382;2023-03-03T03:08:13;94091.56;;;8.80;76.61
7768;BME280;3928;42.626;23.382;2023-03-03T03:10:40;94083.94;;;8.75;77.04
7768;BME280;3928;42.626;23.382;2023-03-03T03:13:06;94098.47;;;8.73;77.66
7768;BME280;3928;42.626;23.382;2023-03-03T03:15:34;94101.00;;;8.76;77.47
7768;BME280;3928;42.626;23.382;2023-03-03T03:18:02;94100.09;;;8.81;77.37
7768;BME280;3928;42.626;23.382;2023-03-03T03:20:29;94101.16;;;8.61;77.20
7768;BME280;3928;42.626;23.382;2023-03-03T03:22:55;94099.44;;;8.63;77.57
7768;BME280;3928;42.626;23.382;2023-03-03T03:25:22;94094.47;;;8.54;78.17
7768;BME280;3928;42.626;23.382;2023-03-03T03:27:49;94091.97;;;8.48;79.04
7768;BME280;3928;42.626;23.382;2023-03-03T03:30:16;94091.19;;;8.43;78.69
7768;BME280;3928;42.626;23.382;2023-03-03T03:32:45;94085.22;;;8.42;79.00
7768;BME280;3928;42.626;23.382;2023-03-03T03:35:13;94081.81;;;8.40;78.65
7768;BME280;3928;42.626;23.382;2023-03-03T03:37:41;94089.69;;;8.20;79.50
7768;BME280;3928;42.626;23.382;2023-03-03T03:40:09;94077.94;;;8.03;79.86
7768;BME280;3928;42.626;23.382;2023-03-03T03:42:36;94087.25;;;8.10;80.62
7768;BME280;3928;42.626;23.382;2023-03-03T03:45:06;94051.66;;;7.95;80.91
7768;BME280;3928;42.626;23.382;2023-03-03T03:47:33;94080.47;;;8.09;81.36
7768;BME280;3928;42.626;23.382;2023-03-03T03:50:00;94077.94;;;8.04;81.20
7768;BME280;3928;42.626;23.382;2023-03-03T03:52:28;94014.59;;;7.55;81.83
7768;BME280;3928;42.626;23.382;2023-03-03T03:54:55;94012.00;;;7.60;81.93
7768;BME280;3928;42.626;23.382;2023-03-03T03:57:21;94007.69;;;7.65;81.56
7768;BME280;3928;42.626;23.382;2023-03-03T03:59:48;94076.22;;;8.06;81.60
7768;BME280;3928;42.626;23.382;2023-03-03T04:02:15;94076.31;;;7.97;81.99
7768;BME280;3928;42.626;23.382;2023-03-03T04:04:42;94039.09;;;7.75;82.20
7768;BME280;3928;42.626;23.382;2023-03-03T04:07:09;94067.84;;;7.94;82.50
7768;BME280;3928;42.626;23.382;2023-03-03T04:09:37;94068.75;;;7.86;83.07
7768;BME280;3928;42.626;23.382;2023-03-03T04:12:04;94071.34;;;7.85;83.27
7768;BME280;3928;42.626;23.382;2023-03-03T04:14:31;94063.75;;;7.77;83.53
7768;BME280;3928;42.626;23.382;2023-03-03T04:16:58;94067.22;;;7.70;83.95
7768;BME280;3928;42.626;23.382;2023-03-03T04:19:25;94070.66;;;7.66;84.71
7768;BME280;3928;42.626;23.382;2023-03-03T04:21:51;94059.66;;;7.59;85.29
7768;BME280;3928;42.626;23.382;2023-03-03T04:24:18;94049.47;;;7.59;85.15
7768;BME280;3928;42.626;23.382;2023-03-03T04:26:46;94052.75;;;7.71;85.11
7768;BME280;3928;42.626;23.382;2023-03-03T04:29:13;94074.88;;;7.69;84.07
7768;BME280;3928;42.626;23.382;2023-03-03T04:31:40;94065.63;;;7.58;84.73
7768;BME280;3928;42.626;23.382;2023-03-03T04:34:07;94068.94;;;7.70;84.63
7768;BME280;3928;42.626;23.382;2023-03-03T04:36:33;94061.22;;;7.76;84.62
7768;BME280;3928;42.626;23.382;2023-03-03T04:39:00;94061.16;;;7.82;84.91
7768;BME280;3928;42.626;23.382;2023-03-03T04:41:27;94055.22;;;7.78;84.36
7768;BME280;3928;42.626;23.382;2023-03-03T04:43:55;94061.94;;;7.88;84.50
7768;BME280;3928;42.626;23.382;2023-03-03T04:46:22;94055.13;;;7.87;85.22
7768;BME280;3928;42.626;23.382;2023-03-03T04:48:49;94059.22;;;8.05;83.53
7768;BME280;3928;42.626;23.382;2023-03-03T04:51:16;94041.31;;;8.04;83.47
7768;BME280;3928;42.626;23.382;2023-03-03T04:53:43;94060.63;;;8.28;83.00
7768;BME280;3928;42.626;23.382;2023-03-03T04:56:09;94052.97;;;8.28;82.00
7768;BME280;3928;42.626;23.382;2023-03-03T04:58:36;94070.72;;;8.43;82.40
7768;BME280;3928;42.626;23.382;2023-03-03T05:01:04;94069.00;;;8.45;80.84
7768;BME280;3928;42.626;23.382;2023-03-03T05:03:31;94071.53;;;8.45;80.79
7768;BME280;3928;42.626;23.382;2023-03-03T05:05:58;94069.91;;;8.41;80.00
7768;BME280;3928;42.626;23.382;2023-03-03T05:08:25;94073.31;;;8.38;80.96
7768;BME280;3928;42.626;23.382;2023-03-03T05:10:52;94075.88;;;8.41;81.10
7768;BME280;3928;42.626;23.382;2023-03-03T05:13:19;94065.59;;;8.44;81.62
7768;BME280;3928;42.626;23.382;2023-03-03T05:15:49;94076.56;;;8.53;81.64
7768;BME280;3928;42.626;23.382;2023-03-03T05:18:19;94074.88;;;8.53;82.34
7768;BME280;3928;42.626;23.382;2023-03-03T05:20:46;94080.72;;;8.61;82.25
7768;BME280;3928;42.626;23.382;2023-03-03T05:23:13;94073.00;;;8.64;81.59
7768;BME280;3928;42.626;23.382;2023-03-03T05:25:40;94084.78;;;8.74;81.61
7768;BME280;3928;42.626;23.382;2023-03-03T05:28:07;94082.25;;;8.74;80.79
7768;BME280;3928;42.626;23.382;2023-03-03T05:30:34;94083.09;;;8.73;80.61
7768;BME280;3928;42.626;23.382;2023-03-03T05:33:01;94089.97;;;8.71;81.67
7768;BME280;3928;42.626;23.382;2023-03-03T05:35:30;94084.00;;;8.71;81.28
7768;BME280;3928;42.626;23.382;2023-03-03T05:37:57;94080.69;;;8.64;81.15
7768;BME280;3928;42.626;23.382;2023-03-03T05:40:24;94086.59;;;8.68;81.69
7768;BME280;3928;42.626;23.382;2023-03-03T05:42:51;94088.22;;;8.73;81.40
7768;BME280;3928;42.626;23.382;2023-03-03T05:45:19;94089.91;;;8.74;81.54
7768;BME280;3928;42.626;23.382;2023-03-03T05:47:46;94081.38;;;8.75;81.25
7768;BME280;3928;42.626;23.382;2023-03-03T05:50:13;94088.97;;;8.82;81.15
7768;BME280;3928;42.626;23.382;2023-03-03T05:52:41;94088.94;;;8.85;80.75
7768;BME280;3928;42.626;23.382;2023-03-03T05:55:09;94090.75;;;8.76;80.71
7768;BME280;3928;42.626;23.382;2023-03-03T05:57:36;94091.72;;;8.68;81.39
7768;BME280;3928;42.626;23.382;2023-03-03T06:00:04;94089.97;;;8.70;80.93
7768;BME280;3928;42.626;23.382;2023-03-03T06:02:31;94086.69;;;8.60;81.44
7768;BME280;3928;42.626;23.382;2023-03-03T06:04:59;94077.31;;;8.59;81.54
7768;BME280;3928;42.626;23.382;2023-03-03T06:07:26;94089.97;;;8.70;81.58
7768;BME280;3928;42.626;23.382;2023-03-03T06:09:54;94089.03;;;8.75;82.28
7768;BME280;3928;42.626;23.382;2023-03-03T06:12:20;94088.94;;;8.85;83.75
7768;BME280;3928;42.626;23.382;2023-03-03T06:14:47;94090.50;;;8.95;82.40
7768;BME280;3928;42.626;23.382;2023-03-03T06:17:14;94100.75;;;8.93;80.60
7768;BME280;3928;42.626;23.382;2023-03-03T06:19:41;94082.16;;;8.81;80.16
7768;BME280;3928;42.626;23.382;2023-03-03T06:22:08;94091.56;;;8.80;81.50
7768;BME280;3928;42.626;23.382;2023-03-03T06:24:34;94105.13;;;8.85;81.26
7768;BME280;3928;42.626;23.382;2023-03-03T06:27:03;94096.38;;;9.01;81.82
7768;BME280;3928;42.626;23.382;2023-03-03T06:29:29;94092.69;;;9.21;80.25
7768;BME280;3928;42.626;23.382;2023-03-03T06:31:57;94102.94;;;9.19;80.03
7768;BME280;3928;42.626;23.382;2023-03-03T06:34:23;94099.56;;;9.17;79.85
7768;BME280;3928;42.626;23.382;2023-03-03T06:36:50;94094.59;;;9.06;79.53
7768;BME280;3928;42.626;23.382;2023-03-03T06:39:17;94098.09;;;8.99;80.06
7768;BME280;3928;42.626;23.382;2023-03-03T06:41:44;94094.69;;;9.02;80.84
7768;BME280;3928;42.626;23.382;2023-03-03T06:44:12;94103.19;;;9.02;80.67
7768;BME280;3928;42.626;23.382;2023-03-03T06:46:39;94102.25;;;9.08;81.16
7768;BME280;3928;42.626;23.382;2023-03-03T06:49:05;94103.25;;;8.98;80.59
7768;BME280;3928;42.626;23.382;2023-03-03T06:51:34;94100.66;;;9.01;80.76
7768;BME280;3928;42.626;23.382;2023-03-03T06:54:10;94112.56;;;9.03;81.35
7768;BME280;3928;42.626;23.382;2023-03-03T06:56:37;94109.88;;;9.13;80.75
7768;BME280;3928;42.626;23.382;2023-03-03T06:59:10;94108.84;;;9.23;80.37
7768;BME280;3928;42.626;23.382;2023-03-03T07:01:39;94073.31;;;9.03;79.51
7768;BME280;3928;42.626;23.382;2023-03-03T07:04:13;94108.75;;;9.30;79.47
7768;BME280;3928;42.626;23.382;2023-03-03T07:06:41;94115.44;;;9.41;79.48
7768;BME280;3928;42.626;23.382;2023-03-03T07:09:13;94112.88;;;9.41;79.29
7768;BME280;3928;42.626;23.382;2023-03-03T07:11:43;94112.94;;;9.34;78.79
7768;BME280;3928;42.626;23.382;2023-03-03T07:14:15;94081.69;;;9.14;78.70
7768;BME280;3928;42.626;23.382;2023-03-03T07:16:43;94095.94;;;9.30;78.36
7768;BME280;3928;42.626;23.382;2023-03-03T07:19:17;94115.31;;;9.47;77.69
7768;BME280;3928;42.626;23.382;2023-03-03T07:21:45;94101.69;;;9.45;79.09
7768;BME280;3928;42.626;23.382;2023-03-03T07:24:23;94102.47;;;9.51;77.97
7768;BME280;3928;42.626;23.382;2023-03-03T07:26:51;94108.38;;;9.55;78.04
7768;BME280;3928;42.626;23.382;2023-03-03T07:29:22;94108.28;;;9.61;77.14
7768;BME280;3928;42.626;23.382;2023-03-03T07:31:52;94108.28;;;9.61;76.15
7768;BME280;3928;42.626;23.382;2023-03-03T07:34:22;94098.00;;;9.62;76.21
7768;BME280;3928;42.626;23.382;2023-03-03T07:36:52;94088.59;;;9.63;75.51
7768;BME280;3928;42.626;23.382;2023-03-03T07:39:32;94100.41;;;9.73;74.67
7768;BME280;3928;42.626;23.382;2023-03-03T07:42:13;94093.41;;;9.81;74.47
7768;BME280;3928;42.626;23.382;2023-03-03T07:44:40;94089.94;;;9.85;74.47
7768;BME280;3928;42.626;23.382;2023-03-03T07:47:18;94096.06;;;9.77;74.74
7768;BME280;3928;42.626;23.382;2023-03-03T07:49:46;94084.34;;;9.62;74.65
7768;BME280;3928;42.626;23.382;2023-03-03T07:52:23;94095.31;;;9.72;75.78
7768;BME280;3928;42.626;23.382;2023-03-03T07:54:50;94103.66;;;9.81;75.98
7768;BME280;3928;42.626;23.382;2023-03-03T07:57:20;94094.13;;;9.89;76.16
7768;BME280;3928;42.626;23.382;2023-03-03T07:59:49;94093.97;;;9.99;75.59
7768;BME280;3928;42.626;23.382;2023-03-03T08:02:37;94093.03;;;10.03;75.97
7768;BME280;3928;42.626;23.382;2023-03-03T08:05:23;94085.16;;;10.13;75.15
7768;BME280;3928;42.626;23.382;2023-03-03T08:07:53;94091.88;;;10.22;74.14
7768;BME280;3928;42.626;23.382;2023-03-03T08:10:34;94091.91;;;10.17;74.47
7768;BME280;3928;42.626;23.382;2023-03-03T08:13:12;94087.81;;;10.09;75.48
7768;BME280;3928;42.626;23.382;2023-03-03T08:15:44;94089.66;;;10.01;75.78
7768;BME280;3928;42.626;23.382;2023-03-03T08:18:21;94094.84;;;9.98;76.99
7768;BME280;3928;42.626;23.382;2023-03-03T08:20:50;94092.13;;;10.05;75.93
7768;BME280;3928;42.626;23.382;2023-03-03T08:23:18;94081.19;;;9.97;75.29
7768;BME280;3928;42.626;23.382;2023-03-03T08:25:46;94078.91;;;9.80;75.72
7768;BME280;3928;42.626;23.382;2023-03-03T08:28:13;94088.13;;;9.90;76.08
7768;BME280;3928;42.626;23.382;2023-03-03T08:30:41;94084.03;;;9.80;75.73
7768;BME280;3928;42.626;23.382;2023-03-03T08:33:08;94076.63;;;9.65;76.76
7768;BME280;3928;42.626;23.382;2023-03-03T08:35:36;94077.50;;;9.64;76.36
7768;BME280;3928;42.626;23.382;2023-03-03T08:38:04;94076.50;;;9.73;77.03
7768;BME280;3928;42.626;23.382;2023-03-03T08:40:31;94080.19;;;9.55;77.09
7768;BME280;3928;42.626;23.382;2023-03-03T08:42:58;94047.22;;;9.36;76.84
7768;BME280;3928;42.626;23.382;2023-03-03T08:45:26;94071.66;;;9.54;78.21
7768;BME280;3928;42.626;23.382;2023-03-03T08:47:53;94082.69;;;9.58;78.33
7768;BME280;3928;42.626;23.382;2023-03-03T08:50:20;94075.06;;;9.55;78.78
7768;BME280;3928;42.626;23.382;2023-03-03T08:52:49;94074.84;;;9.68;78.92
7768;BME280;3928;42.626;23.382;2023-03-03T08:55:16;94061.22;;;9.66;78.79
7768;BME280;3928;42.626;23.382;2023-03-03T08:57:43;94083.16;;;9.83;78.87
7768;BME280;3928;42.626;23.382;2023-03-03T09:00:12;94088.44;;;9.74;78.69
7768;BME280;3928;42.626;23.382;2023-03-03T09:02:39;94082.25;;;9.85;77.65
7768;BME280;3928;42.626;23.382;2023-03-03T09:05:06;94087.25;;;9.91;76.97
7768;BME280;3928;42.626;23.382;2023-03-03T09:07:34;94018.66;;;9.58;76.61
7768;BME280;3928;42.626;23.382;2023-03-03T09:10:03;94078.66;;;9.95;76.74
7768;BME280;3928;42.626;23.382;2023-03-03T09:12:33;94087.00;;;10.07;77.20
7768;BME280;3928;42.626;23.382;2023-03-03T09:15:11;94073.16;;;10.14;76.63
7768;BME280;3928;42.626;23.382;2023-03-03T09:17:39;94079.22;;;10.11;75.58
7768;BME280;3928;42.626;23.382;2023-03-03T09:20:21;94073.25;;;10.11;74.94
7768;BME280;3928;42.626;23.382;2023-03-03T09:22:48;94075.66;;;10.18;76.06
7768;BME280;3928;42.626;23.382;2023-03-03T09:25:22;94081.50;;;10.27;75.47
7768;BME280;3928;42.626;23.382;2023-03-03T09:27:53;94083.13;;;10.32;75.50
7768;BME280;3928;42.626;23.382;2023-03-03T09:30:33;94082.19;;;10.36;74.16
7768;BME280;3928;42.626;23.382;2023-03-03T09:33:18;94082.09;;;10.41;74.10
7768;BME280;3928;42.626;23.382;2023-03-03T09:35:49;94076.09;;;10.40;73.70
7768;BME280;3928;42.626;23.382;2023-03-03T09:38:25;94070.06;;;10.44;74.04
7768;BME280;3928;42.626;23.382;2023-03-03T09:44:02;94079.28;;;10.53;74.15
7768;BME280;3928;42.626;23.382;2023-03-03T09:46:36;94074.09;;;10.56;72.95
7768;BME280;3928;42.626;23.382;2023-03-03T09:49:14;94077.44;;;10.60;73.20
7768;BME280;3928;42.626;23.382;2023-03-03T09:51:58;94082.47;;;10.66;73.38
7768;BME280;3928;42.626;23.382;2023-03-03T09:54:39;94080.72;;;10.68;71.69
7768;BME280;3928;42.626;23.382;2023-03-03T09:57:13;94072.81;;;10.75;71.36
7768;BME280;3928;42.626;23.382;2023-03-03T09:59:58;94077.06;;;10.78;71.02
7768;BME280;3928;42.626;23.382;2023-03-03T10:02:37;94077.13;;;10.75;71.81
7768;BME280;3928;42.626;23.382;2023-03-03T10:05:24;94071.31;;;10.65;71.89
7768;BME280;3928;42.626;23.382;2023-03-03T10:08:05;94070.50;;;10.63;72.10
7768;BME280;3928;42.626;23.382;2023-03-03T10:10:47;94068.78;;;10.64;72.97
7768;BME280;3928;42.626;23.382;2023-03-03T10:13:25;94074.84;;;10.61;72.74
7768;BME280;3928;42.626;23.382;2023-03-03T10:16:12;94068.88;;;10.61;71.74
7768;BME280;3928;42.626;23.382;2023-03-03T10:18:49;94067.00;;;10.69;72.25
7768;BME280;3928;42.626;23.382;2023-03-03T10:21:23;94061.06;;;10.67;72.11
7768;BME280;3928;42.626;23.382;2023-03-03T10:23:54;94061.59;;;10.81;72.38
7768;BME280;3928;42.626;23.382;2023-03-03T10:26:47;94057.13;;;10.91;71.81
7768;BME280;3928;42.626;23.382;2023-03-03T10:29:25;94046.84;;;10.89;71.81
7768;BME280;3928;42.626;23.382;2023-03-03T10:32:20;94054.31;;;11.00;71.45
7768;BME280;3928;42.626;23.382;2023-03-03T10:34:54;94052.88;;;10.88;70.89
7768;BME280;3928;42.626;23.382;2023-03-03T10:37:32;94044.19;;;10.55;71.56
7768;BME280;3928;42.626;23.382;2023-03-03T10:40:12;94055.78;;;10.31;72.42
7768;BME280;3928;42.626;23.382;2023-03-03T10:42:54;94048.06;;;10.33;75.05
7768;BME280;3928;42.626;23.382;2023-03-03T10:45:48;94053.06;;;10.39;74.94
7768;BME280;3928;42.626;23.382;2023-03-03T10:48:37;93993.09;;;10.01;74.71
7768;BME280;3928;42.626;23.382;2023-03-03T10:51:17;94049.78;;;10.32;74.73
7768;BME280;3928;42.626;23.382;2023-03-03T10:53:57;94039.03;;;10.12;73.77
7768;BME280;3928;42.626;23.382;2023-03-03T10:56:33;94040.72;;;10.13;74.60
7768;BME280;3928;42.626;23.382;2023-03-03T10:59:15;94044.41;;;9.98;75.19
7768;BME280;3928;42.626;23.382;2023-03-03T11:01:52;94035.06;;;9.97;75.43
7768;BME280;3928;42.626;23.382;2023-03-03T11:04:30;94032.94;;;10.17;75.03
7768;BME280;3928;42.626;23.382;2023-03-03T11:07:04;94038.06;;;10.19;74.49
7768;BME280;3928;42.626;23.382;2023-03-03T11:09:51;94034.69;;;10.15;75.30
7768;BME280;3928;42.626;23.382;2023-03-03T11:12:35;94035.72;;;10.07;74.79
7768;BME280;3928;42.626;23.382;2023-03-03T11:15:18;94028.94;;;10.03;76.26
7768;BME280;3928;42.626;23.382;2023-03-03T11:17:59;94023.47;;;10.21;76.30
7768;BME280;3928;42.626;23.382;2023-03-03T11:20:35;94016.38;;;10.35;75.51
7768;BME280;3928;42.626;23.382;2023-03-03T11:23:19;94015.47;;;10.38;74.86
7768;BME280;3928;42.626;23.382;2023-03-03T11:25:52;94008.34;;;10.50;74.58
7768;BME280;3928;42.626;23.382;2023-03-03T11:28:44;94009.97;;;10.56;74.88
7768;BME280;3928;42.626;23.382;2023-03-03T11:31:20;94018.50;;;10.57;74.80
7768;BME280;3928;42.626;23.382;2023-03-03T11:33:58;94013.41;;;10.53;74.40
7768;BME280;3928;42.626;23.382;2023-03-03T11:36:28;94023.16;;;10.38;74.92
7768;BME280;3928;42.626;23.382;2023-03-03T11:38:58;94012.56;;;10.54;75.25
7768;BME280;3928;42.626;23.382;2023-03-03T11:41:33;94007.28;;;10.61;74.11
7768;BME280;3928;42.626;23.382;2023-03-03T11:44:11;94008.88;;;10.65;74.85
7768;BME280;3928;42.626;23.382;2023-03-03T11:46:43;94005.47;;;10.66;74.02
7768;BME280;3928;42.626;23.382;2023-03-03T11:49:16;93986.03;;;10.56;74.50
7768;BME280;3928;42.626;23.382;2023-03-03T11:51:52;94003.72;;;10.68;74.32
7768;BME280;3928;42.626;23.382;2023-03-03T11:54:23;94003.09;;;10.57;73.57
7768;BME280;3928;42.626;23.382;2023-03-03T11:56:55;93997.22;;;10.51;74.15
7768;BME280;3928;42.626;23.382;2023-03-03T11:59:47;94000.38;;;10.63;75.21
7768;BME280;3928;42.626;23.382;2023-03-03T12:05:33;93998.34;;;10.77;73.72
7768;BME280;3928;42.626;23.382;2023-03-03T12:08:09;94003.66;;;10.71;73.86
7768;BME280;3928;42.626;23.382;2023-03-03T12:10:44;93999.72;;;10.54;74.00
7768;BME280;3928;42.626;23.382;2023-03-03T12:13:21;93996.31;;;10.54;74.61
7768;BME280;3928;42.626;23.382;2023-03-03T12:15:54;94013.09;;;10.27;75.13
7768;BME280;3928;42.626;23.382;2023-03-03T12:18:38;94003.13;;;10.12;75.24
7768;BME280;3928;42.626;23.382;2023-03-03T12:21:19;94009.69;;;9.82;77.68
7768;BME280;3928;42.626;23.382;2023-03-03T12:24:04;94006.59;;;9.64;79.17
7768;BME280;3928;42.626;23.382;2023-03-03T12:26:40;94010.97;;;9.58;78.75
7768;BME280;3928;42.626;23.382;2023-03-03T12:29:18;94008.09;;;9.76;79.50
7768;BME280;3928;42.626;23.382;2023-03-03T12:31:53;94012.75;;;10.01;80.19
7768;BME280;3928;42.626;23.382;2023-03-03T12:34:25;94011.78;;;10.08;78.86
7768;BME280;3928;42.626;23.382;2023-03-03T12:37:10;94008.25;;;10.12;78.15
7768;BME280;3928;42.626;23.382;2023-03-03T12:39:44;94009.63;;;10.31;78.08
7768;BME280;3928;42.626;23.382;2023-03-03T12:42:24;94010.38;;;10.36;77.14
7768;BME280;3928;42.626;23.382;2023-03-03T12:45:06;94009.22;;;10.49;77.15
7768;BME280;3928;42.626;23.382;2023-03-03T12:47:37;94008.09;;;10.63;77.40
7768;BME280;3928;42.626;23.382;2023-03-03T12:50:21;94008.78;;;10.71;76.68
7768;BME280;3928;42.626;23.382;2023-03-03T12:52:58;94007.97;;;10.69;76.43
7768;BME280;3928;42.626;23.382;2023-03-03T12:55:33;94008.78;;;10.71;76.24
7768;BME280;3928;42.626;23.382;2023-03-03T12:58:10;94004.59;;;10.65;75.25
7768;BME280;3928;42.626;23.382;2023-03-03T13:00:46;94004.47;;;10.71;75.76
7768;BME280;3928;42.626;23.382;2023-03-03T13:03:34;93996.75;;;10.73;76.03
7768;BME280;3928;42.626;23.382;2023-03-03T13:06:07;94003.16;;;10.53;75.94
7768;BME280;3928;42.626;23.382;2023-03-03T13:08:50;93994.66;;;10.51;77.08
7768;BME280;3928;42.626;23.382;2023-03-03T13:11:32;93994.53;;;10.58;77.70
7768;BME280;3928;42.626;23.382;2023-03-03T13:14:10;94000.47;;;10.60;77.30
7768;BME280;3928;42.626;23.382;2023-03-03T13:16:43;93991.97;;;10.58;76.81
7768;BME280;3928;42.626;23.382;2023-03-03T13:19:17;93993.84;;;10.49;78.43
7768;BME280;3928;42.626;23.382;2023-03-03T13:21:49;93996.47;;;10.46;79.24
7768;BME280;3928;42.626;23.382;2023-03-03T13:24:24;93988.84;;;10.43;77.66
7768;BME280;3928;42.626;23.382;2023-03-03T13:26:56;93982.53;;;10.58;78.55
7768;BME280;3928;42.626;23.382;2023-03-03T13:29:26;93995.00;;;10.75;77.19
7768;BME280;3928;42.626;23.382;2023-03-03T13:31:58;94000.06;;;10.78;76.44
7768;BME280;3928;42.626;23.382;2023-03-03T13:34:38;93992.63;;;10.67;76.18
7768;BME280;3928;42.626;23.382;2023-03-03T13:37:13;93996.03;;;10.68;77.43
7768;BME280;3928;42.626;23.382;2023-03-03T13:39:53;93998.50;;;10.71;77.31
7768;BME280;3928;42.626;23.382;2023-03-03T13:42:24;93994.34;;;10.65;78.87
7768;BME280;3928;42.626;23.382;2023-03-03T13:44:54;93993.38;;;10.71;78.36
7768;BME280;3928;42.626;23.382;2023-03-03T13:47:29;93996.19;;;10.60;78.97